Bella Vita — ZGAG5 — position and weather

sailwx.info

Track history (hours):
 
Tides and Currents Weather Stations Pressure Air Temp Water Temp Dewpoint Dewpoint Depression Visibility Wind Speed Wind Dir Waves Ship Positions

Bella Vita

Last reported at 2016-Feb-07 15:22 UTC. Time now 2016-Feb-07 17:16 UTC.
Position N 18°28' W 064°35'.

Length 45 m; draft 2.7 m.

Type: Pleasure craft. MMSI: 319016600.

Date/timePositionNaut miles runAvg speedWind from/ knotsBaromVisibWave heightAir tempDewpointWater temp
2016-Feb-07 15:22N 18°28' W 064°35'0 0.0
2016-Feb-07 14:16N 18°28' W 064°35'0 0.0
2016-Feb-07 13:28N 18°28' W 064°35'0 0.1
2016-Feb-07 11:24N 18°28' W 064°34'0 0.0
2016-Feb-07 10:19N 18°28' W 064°35'0 0.0
2016-Feb-07 09:25N 18°28' W 064°34'0 0.0
2016-Feb-07 08:25N 18°28' W 064°35'0 0.0
2016-Feb-07 07:31N 18°28' W 064°34'0 0.0
2016-Feb-07 06:25N 18°28' W 064°34'0 0.0
2016-Feb-07 05:31N 18°28' W 064°35'0 0.0
2016-Feb-07 04:31N 18°28' W 064°34'0 0.0
2016-Feb-07 03:25N 18°28' W 064°35'0 0.0
2016-Feb-07 02:31N 18°28' W 064°35'0 0.0
2016-Feb-06 23:31N 18°28' W 064°35'5 3.8
2016-Feb-06 22:19N 18°28' W 064°30'  
2016-Feb-03 16:32N 18°28' W 064°27'9 0.4
2016-Feb-02 19:13N 18°22' W 064°34'3 0.5
2016-Feb-02 12:16N 18°20' W 064°37'911.9
2016-Feb-02 11:33N 18°25' W 064°31'0 0.0
2016-Jan-31 12:14N 18°26' W 064°31'  
2016-Jan-28 20:22N 18°25' W 064°36'0 9.3
2016-Jan-28 20:21N 18°25' W 064°36'7 8.4
2016-Jan-28 19:29N 18°23' W 064°29'  
Track history (hours):
 
Tides and Currents Weather Stations Pressure Air Temp Water Temp Dewpoint Dewpoint Depression Visibility Wind Speed Wind Dir Waves Ship Positions

Bella Vita

Last reported at 2016-Feb-07 15:22 UTC. Time now 2016-Feb-07 17:16 UTC.
Position N 18°28' W 064°35'.

Length 45 m; draft 2.7 m.

Type: Pleasure craft. MMSI: 319016600.

Date/timePositionNaut miles runAvg speedWind from/ knotsBaromVisibWave heightAir tempDewpointWater temp
2016-Feb-07 15:22N 18°28' W 064°35'0 0.0
2016-Feb-07 14:16N 18°28' W 064°35'0 0.0
2016-Feb-07 13:28N 18°28' W 064°35'0 0.1
2016-Feb-07 11:24N 18°28' W 064°34'0 0.0
2016-Feb-07 10:19N 18°28' W 064°35'0 0.0
2016-Feb-07 09:25N 18°28' W 064°34'0 0.0
2016-Feb-07 08:25N 18°28' W 064°35'0 0.0
2016-Feb-07 07:31N 18°28' W 064°34'0 0.0
2016-Feb-07 06:25N 18°28' W 064°34'0 0.0
2016-Feb-07 05:31N 18°28' W 064°35'0 0.0
2016-Feb-07 04:31N 18°28' W 064°34'0 0.0
2016-Feb-07 03:25N 18°28' W 064°35'0 0.0
2016-Feb-07 02:31N 18°28' W 064°35'0 0.0
2016-Feb-06 23:31N 18°28' W 064°35'5 3.8
2016-Feb-06 22:19N 18°28' W 064°30'  
2016-Feb-03 16:32N 18°28' W 064°27'9 0.4
2016-Feb-02 19:13N 18°22' W 064°34'3 0.5
2016-Feb-02 12:16N 18°20' W 064°37'911.9
2016-Feb-02 11:33N 18°25' W 064°31'0 0.0
2016-Jan-31 12:14N 18°26' W 064°31'  
2016-Jan-28 20:22N 18°25' W 064°36'0 9.3
2016-Jan-28 20:21N 18°25' W 064°36'7 8.4
2016-Jan-28 19:29N 18°23' W 064°29'  

Dump ship's entire track history